Skywest CRJ2 at Rock Springs on Dec 27th 2022, runway excursion on landing

Last Update: December 31, 2022 / 12:06:35 GMT/Zulu time

Bookmark this article
Incident Facts

Date of incident
Dec 27, 2022

Classification
Incident

Flight number
UA-5094

Aircraft Registration
N958SW

ICAO Type Designator
CRJ2

Airport ICAO Code
KRKS

A Skywest Canadair CRJ-200 on behalf of United, registration N958SW performing flight UA-5094 from Denver,CO to Rock Springs,WY (USA) with 50 people on board, landed on Rock Springs' runway 27 at 21:36L (04:36Z Dec 28th), slowed down safely to taxi speed and was about to turn off the runway at the last exit when the aircraft skidded with its nose gear beyond the end of the runway. There were no injuries and no damage to the aircraft.

The NTSB have opened an investigation.

Sweetwater Sheriff Office reported the aircraft landed in black ice conditions.

On Dec 31st 2022 Skywest told The Aviation Herald: "SkyWest flight 5094, operating as United Express from Denver to Rock Springs, Wyoming, partially left the pavement as it turned onto the taxiway at a slow speed after landing at Rock Springs. All passengers safely deplaned and were bussed to the terminal." and further annotated: "it has not yet been determined what caused the aircraft to slip and is currently under investigation."



Metars:
KRKS 280654Z AUTO 23012KT 10SM SCT043 BKN050 OVC080 02/M02 A2953 RMK AO2 SLP992 T00221017=
KRKS 280554Z AUTO 11003KT 10SM SCT047 BKN060 02/M02 A2954 RMK AO2 SLP997 60000 T00221017 10033 20011 56015=
KRKS 280454Z AUTO 14010KT 10SM FEW080 01/M01 A2955 RMK AO2 SLP009 T00111011=
KRKS 280354Z AUTO 16005KT 10SM OVC100 02/00 A2957 RMK AO2 SLPNO T00170000=
KRKS 280254Z AUTO 21008G17KT 10SM BKN033 BKN100 03/00 A2959 RMK AO2 RAB0159E12 SLPNO P0000 60000 T00280000 56015=
KRKS 280154Z AUTO 20006KT 10SM OVC039 01/00 A2961 RMK AO2 RAE49 SLPNO P0000 T00110000=
KRKS 280054Z AUTO 16010KT 10SM -RA FEW034 OVC046 01/01 A2962 RMK AO2 SLPNO P0000 T00110006=
KRKS 272354Z AUTO 20007KT 10SM -RA SCT019 OVC032 02/02 A2965 RMK AO2 SLPNO P0001 60006 T00170017 10028 20000 56013=

Related NOTAMs:
!RKS 12/219 RKS RWY 09/27 UNSAFE DISABLED ACFT 2212280507-2212281700
!RKS 12/220 RKS AD AP CLSD 2212280511-2212281000
!RKS 12/221 RKS AD AP CLSD CTC ZLC ARTCC ON 124.35 2212280511-2212281000
Aircraft Registration Data
Registration mark
N958SW
Country of Registration
United States
Date of Registration
Dp hifjkjenfjbk Subscribe to unlock
Manufacturer
BOMBARDIER INC
Aircraft Model / Type
CL-600-2B19
Number of Seats
ICAO Aircraft Type
CRJ2
Year of Manufacture
Serial Number
Aircraft Address / Mode S Code (HEX)
Engine Count
Engine Manufacturer
Engine Model
Engine Type
Pounds of Thrust
Main Owner
AhnmhcqpAheiiqmp pfbpbn igmnqbeddhbjehhimfkbkmpnkbjgegbdfcclgmnicpjbmhemcd Subscribe to unlock
Incident Facts

Date of incident
Dec 27, 2022

Classification
Incident

Flight number
UA-5094

Aircraft Registration
N958SW

ICAO Type Designator
CRJ2

Airport ICAO Code
KRKS

This article is published under license from Avherald.com. © of text by Avherald.com.
Article source

You can read 2 more free articles without a subscription.

Subscribe now and continue reading without any limits!

Are you a subscriber? Login
Subscribe

Read unlimited articles and receive our daily update briefing. Gain better insights into what is happening in commercial aviation safety.

Send tip

Support AeroInside by sending a small tip amount.

Related articles

Newest articles

Subscribe today

Are you researching aviation incidents? Get access to AeroInside Insights, unlimited read access and receive the daily newsletter.

Pick your plan and subscribe

Partner

Blockaviation logo

A new way to document and demonstrate airworthiness compliance and aircraft value. Find out more.

ELITE Logo

ELITE Simulation Solutions is a leading global provider of Flight Simulation Training Devices, IFR training software as well as flight controls and related services. Find out more.

Blue Altitude Logo

Your regulation partner, specialists in aviation safety and compliance; providing training, auditing, and consultancy services. Find out more.

AeroInside Blog
Popular aircraft
Airbus A320
Boeing 737-800
Boeing 737-800 MAX
Popular airlines
American Airlines
United
Delta
Air Canada
Lufthansa
British Airways